sensor_id;sensor_type;location;lat;lon;timestamp;P1;durP1;ratioP1;P2;durP2;ratioP2
48703;SDS011;34502;51.296;16.918;2022-11-06T00:01:13;36.08;;;19.20;;
48703;SDS011;34502;51.296;16.918;2022-11-06T00:03:41;33.97;;;19.60;;
48703;SDS011;34502;51.296;16.918;2022-11-06T00:06:08;28.13;;;17.63;;
48703;SDS011;34502;51.296;16.918;2022-11-06T00:09:02;34.50;;;19.88;;
48703;SDS011;34502;51.296;16.918;2022-11-06T00:11:30;32.08;;;18.63;;
48703;SDS011;34502;51.296;16.918;2022-11-06T00:13:56;29.95;;;18.23;;
48703;SDS011;34502;51.296;16.918;2022-11-06T00:16:23;37.22;;;18.60;;
48703;SDS011;34502;51.296;16.918;2022-11-06T00:18:49;27.77;;;18.23;;
48703;SDS011;34502;51.296;16.918;2022-11-06T00:21:17;32.58;;;19.23;;
48703;SDS011;34502;51.296;16.918;2022-11-06T00:23:45;33.45;;;19.63;;
48703;SDS011;34502;51.296;16.918;2022-11-06T00:26:12;31.60;;;19.38;;
48703;SDS011;34502;51.296;16.918;2022-11-06T00:28:40;31.83;;;18.48;;
48703;SDS011;34502;51.296;16.918;2022-11-06T00:31:08;29.27;;;17.23;;
48703;SDS011;34502;51.296;16.918;2022-11-06T00:33:35;29.52;;;19.02;;
48703;SDS011;34502;51.296;16.918;2022-11-06T00:36:02;33.28;;;18.48;;
48703;SDS011;34502;51.296;16.918;2022-11-06T00:38:30;32.00;;;18.10;;
48703;SDS011;34502;51.296;16.918;2022-11-06T00:40:56;30.33;;;18.85;;
48703;SDS011;34502;51.296;16.918;2022-11-06T00:43:25;31.83;;;18.20;;
48703;SDS011;34502;51.296;16.918;2022-11-06T00:45:52;30.48;;;18.13;;
48703;SDS011;34502;51.296;16.918;2022-11-06T00:48:18;30.10;;;18.50;;
48703;SDS011;34502;51.296;16.918;2022-11-06T00:50:44;23.70;;;17.10;;
48703;SDS011;34502;51.296;16.918;2022-11-06T00:53:10;23.55;;;17.05;;
48703;SDS011;34502;51.296;16.918;2022-11-06T00:55:36;26.63;;;17.00;;
48703;SDS011;34502;51.296;16.918;2022-11-06T00:58:02;29.20;;;16.05;;
48703;SDS011;34502;51.296;16.918;2022-11-06T01:00:28;35.65;;;17.95;;
48703;SDS011;34502;51.296;16.918;2022-11-06T01:02:54;29.30;;;16.80;;
48703;SDS011;34502;51.296;16.918;2022-11-06T01:05:21;26.35;;;16.70;;
48703;SDS011;34502;51.296;16.918;2022-11-06T01:07:47;35.30;;;17.25;;
48703;SDS011;34502;51.296;16.918;2022-11-06T01:10:13;35.38;;;18.67;;
48703;SDS011;34502;51.296;16.918;2022-11-06T01:12:39;36.63;;;20.00;;
48703;SDS011;34502;51.296;16.918;2022-11-06T01:15:05;35.22;;;20.02;;
48703;SDS011;34502;51.296;16.918;2022-11-06T01:17:33;31.10;;;20.30;;
48703;SDS011;34502;51.296;16.918;2022-11-06T01:19:59;30.95;;;20.92;;
48703;SDS011;34502;51.296;16.918;2022-11-06T01:22:25;29.58;;;18.30;;
48703;SDS011;34502;51.296;16.918;2022-11-06T01:24:51;32.10;;;19.90;;
48703;SDS011;34502;51.296;16.918;2022-11-06T01:27:17;26.35;;;17.60;;
48703;SDS011;34502;51.296;16.918;2022-11-06T01:29:43;30.38;;;18.70;;
48703;SDS011;34502;51.296;16.918;2022-11-06T01:32:09;31.60;;;19.27;;
48703;SDS011;34502;51.296;16.918;2022-11-06T01:34:35;28.70;;;18.20;;
48703;SDS011;34502;51.296;16.918;2022-11-06T01:37:02;31.45;;;19.02;;
48703;SDS011;34502;51.296;16.918;2022-11-06T01:39:28;31.83;;;18.50;;
48703;SDS011;34502;51.296;16.918;2022-11-06T01:41:54;30.38;;;16.52;;
48703;SDS011;34502;51.296;16.918;2022-11-06T01:49:45;28.55;;;17.90;;
48703;SDS011;34502;51.296;16.918;2022-11-06T01:52:12;28.48;;;17.38;;
48703;SDS011;34502;51.296;16.918;2022-11-06T01:54:39;27.48;;;16.33;;
48703;SDS011;34502;51.296;16.918;2022-11-06T01:57:07;26.30;;;16.88;;
48703;SDS011;34502;51.296;16.918;2022-11-06T01:59:34;29.73;;;17.10;;
48703;SDS011;34502;51.296;16.918;2022-11-06T02:02:04;31.58;;;18.08;;
48703;SDS011;34502;51.296;16.918;2022-11-06T02:04:31;26.02;;;17.10;;
48703;SDS011;34502;51.296;16.918;2022-11-06T02:07:00;31.67;;;16.48;;
48703;SDS011;34502;51.296;16.918;2022-11-06T02:09:27;27.27;;;15.88;;
48703;SDS011;34502;51.296;16.918;2022-11-06T02:12:02;26.58;;;15.55;;
48703;SDS011;34502;51.296;16.918;2022-11-06T02:14:41;21.83;;;14.80;;
48703;SDS011;34502;51.296;16.918;2022-11-06T02:17:26;25.33;;;15.95;;
48703;SDS011;34502;51.296;16.918;2022-11-06T02:20:02;22.17;;;14.10;;
48703;SDS011;34502;51.296;16.918;2022-11-06T02:25:40;24.75;;;15.18;;
48703;SDS011;34502;51.296;16.918;2022-11-06T02:28:29;21.13;;;13.50;;
48703;SDS011;34502;51.296;16.918;2022-11-06T02:31:02;26.38;;;14.38;;
48703;SDS011;34502;51.296;16.918;2022-11-06T02:33:33;23.10;;;13.20;;
48703;SDS011;34502;51.296;16.918;2022-11-06T02:36:09;26.13;;;14.18;;
48703;SDS011;34502;51.296;16.918;2022-11-06T02:38:39;28.17;;;16.98;;
48703;SDS011;34502;51.296;16.918;2022-11-06T02:41:08;29.58;;;18.67;;
48703;SDS011;34502;51.296;16.918;2022-11-06T02:46:12;35.55;;;19.60;;
48703;SDS011;34502;51.296;16.918;2022-11-06T02:48:46;28.50;;;16.95;;
48703;SDS011;34502;51.296;16.918;2022-11-06T02:51:21;27.70;;;17.98;;
48703;SDS011;34502;51.296;16.918;2022-11-06T02:53:50;29.77;;;17.75;;
48703;SDS011;34502;51.296;16.918;2022-11-06T02:56:17;33.90;;;18.48;;
48703;SDS011;34502;51.296;16.918;2022-11-06T03:03:53;31.98;;;20.20;;
48703;SDS011;34502;51.296;16.918;2022-11-06T03:06:29;28.42;;;17.60;;
48703;SDS011;34502;51.296;16.918;2022-11-06T03:09:02;35.20;;;19.48;;
48703;SDS011;34502;51.296;16.918;2022-11-06T03:11:34;39.85;;;21.95;;
48703;SDS011;34502;51.296;16.918;2022-11-06T03:20:11;35.08;;;18.30;;
48703;SDS011;34502;51.296;16.918;2022-11-06T03:25:20;43.67;;;22.77;;
48703;SDS011;34502;51.296;16.918;2022-11-06T03:28:06;40.35;;;20.77;;
48703;SDS011;34502;51.296;16.918;2022-11-06T03:30:42;45.08;;;22.38;;
48703;SDS011;34502;51.296;16.918;2022-11-06T03:33:18;35.22;;;21.92;;
48703;SDS011;34502;51.296;16.918;2022-11-06T03:38:38;42.03;;;25.52;;
48703;SDS011;34502;51.296;16.918;2022-11-06T03:41:07;35.78;;;22.98;;
48703;SDS011;34502;51.296;16.918;2022-11-06T03:43:44;36.22;;;22.17;;
48703;SDS011;34502;51.296;16.918;2022-11-06T03:46:14;35.28;;;22.08;;
48703;SDS011;34502;51.296;16.918;2022-11-06T03:48:45;33.53;;;22.52;;
48703;SDS011;34502;51.296;16.918;2022-11-06T03:51:26;39.08;;;22.90;;
48703;SDS011;34502;51.296;16.918;2022-11-06T03:56:47;33.63;;;23.63;;
48703;SDS011;34502;51.296;16.918;2022-11-06T03:59:19;35.05;;;23.77;;
48703;SDS011;34502;51.296;16.918;2022-11-06T04:01:49;34.80;;;24.02;;
48703;SDS011;34502;51.296;16.918;2022-11-06T04:04:23;34.75;;;24.35;;
48703;SDS011;34502;51.296;16.918;2022-11-06T04:07:02;39.40;;;24.67;;
48703;SDS011;34502;51.296;16.918;2022-11-06T04:09:32;36.22;;;24.38;;
48703;SDS011;34502;51.296;16.918;2022-11-06T04:12:20;32.88;;;22.92;;
48703;SDS011;34502;51.296;16.918;2022-11-06T04:15:08;34.65;;;22.85;;
48703;SDS011;34502;51.296;16.918;2022-11-06T04:17:39;32.60;;;21.48;;
48703;SDS011;34502;51.296;16.918;2022-11-06T04:20:07;31.08;;;21.55;;
48703;SDS011;34502;51.296;16.918;2022-11-06T04:22:54;36.80;;;21.75;;
48703;SDS011;34502;51.296;16.918;2022-11-06T04:25:45;30.92;;;20.73;;
48703;SDS011;34502;51.296;16.918;2022-11-06T04:29:25;32.35;;;21.55;;
48703;SDS011;34502;51.296;16.918;2022-11-06T04:31:44;32.42;;;21.90;;
48703;SDS011;34502;51.296;16.918;2022-11-06T04:34:26;29.17;;;20.53;;
48703;SDS011;34502;51.296;16.918;2022-11-06T04:37:23;26.70;;;19.35;;
48703;SDS011;34502;51.296;16.918;2022-11-06T04:40:10;35.27;;;20.80;;
48703;SDS011;34502;51.296;16.918;2022-11-06T04:43:13;32.67;;;21.45;;
48703;SDS011;34502;51.296;16.918;2022-11-06T04:45:46;29.42;;;19.23;;
48703;SDS011;34502;51.296;16.918;2022-11-06T04:48:13;30.00;;;20.52;;
48703;SDS011;34502;51.296;16.918;2022-11-06T04:50:42;34.28;;;20.95;;
48703;SDS011;34502;51.296;16.918;2022-11-06T04:53:11;30.75;;;21.15;;
48703;SDS011;34502;51.296;16.918;2022-11-06T04:55:48;35.47;;;22.38;;
48703;SDS011;34502;51.296;16.918;2022-11-06T04:58:17;36.72;;;22.75;;
48703;SDS011;34502;51.296;16.918;2022-11-06T05:00:47;39.53;;;21.85;;
48703;SDS011;34502;51.296;16.918;2022-11-06T05:03:14;37.45;;;22.80;;
48703;SDS011;34502;51.296;16.918;2022-11-06T05:05:41;31.98;;;20.52;;
48703;SDS011;34502;51.296;16.918;2022-11-06T05:08:15;32.45;;;19.88;;
48703;SDS011;34502;51.296;16.918;2022-11-06T05:10:42;29.75;;;20.63;;
48703;SDS011;34502;51.296;16.918;2022-11-06T05:13:09;30.50;;;21.52;;
48703;SDS011;34502;51.296;16.918;2022-11-06T05:15:35;36.83;;;24.55;;
48703;SDS011;34502;51.296;16.918;2022-11-06T05:18:02;44.40;;;25.88;;
48703;SDS011;34502;51.296;16.918;2022-11-06T05:20:28;40.03;;;27.23;;
48703;SDS011;34502;51.296;16.918;2022-11-06T05:22:55;44.75;;;29.27;;
48703;SDS011;34502;51.296;16.918;2022-11-06T05:25:28;47.90;;;30.05;;
48703;SDS011;34502;51.296;16.918;2022-11-06T05:27:56;45.17;;;28.50;;
48703;SDS011;34502;51.296;16.918;2022-11-06T05:30:23;39.92;;;24.60;;
48703;SDS011;34502;51.296;16.918;2022-11-06T05:32:50;36.35;;;23.38;;
48703;SDS011;34502;51.296;16.918;2022-11-06T05:35:17;32.88;;;20.77;;
48703;SDS011;34502;51.296;16.918;2022-11-06T05:37:44;32.72;;;22.17;;
48703;SDS011;34502;51.296;16.918;2022-11-06T05:40:11;28.95;;;20.50;;
48703;SDS011;34502;51.296;16.918;2022-11-06T05:42:38;30.02;;;20.20;;
48703;SDS011;34502;51.296;16.918;2022-11-06T05:45:05;34.08;;;20.98;;
48703;SDS011;34502;51.296;16.918;2022-11-06T05:47:32;34.08;;;21.65;;
48703;SDS011;34502;51.296;16.918;2022-11-06T05:49:58;44.22;;;25.27;;
48703;SDS011;34502;51.296;16.918;2022-11-06T05:52:24;42.85;;;25.20;;
48703;SDS011;34502;51.296;16.918;2022-11-06T05:54:51;40.80;;;24.13;;
48703;SDS011;34502;51.296;16.918;2022-11-06T05:57:17;39.63;;;25.67;;
48703;SDS011;34502;51.296;16.918;2022-11-06T05:59:43;45.30;;;28.45;;
48703;SDS011;34502;51.296;16.918;2022-11-06T06:02:09;42.92;;;26.50;;
48703;SDS011;34502;51.296;16.918;2022-11-06T06:04:35;44.40;;;26.73;;
48703;SDS011;34502;51.296;16.918;2022-11-06T06:07:01;42.97;;;27.73;;
48703;SDS011;34502;51.296;16.918;2022-11-06T06:09:27;47.83;;;29.60;;
48703;SDS011;34502;51.296;16.918;2022-11-06T06:11:53;40.53;;;26.42;;
48703;SDS011;34502;51.296;16.918;2022-11-06T06:14:20;36.13;;;24.25;;
48703;SDS011;34502;51.296;16.918;2022-11-06T06:16:46;40.53;;;25.23;;
48703;SDS011;34502;51.296;16.918;2022-11-06T06:19:12;35.25;;;23.65;;
48703;SDS011;34502;51.296;16.918;2022-11-06T06:21:39;36.72;;;23.38;;
48703;SDS011;34502;51.296;16.918;2022-11-06T06:24:05;39.33;;;23.27;;
48703;SDS011;34502;51.296;16.918;2022-11-06T06:26:31;32.50;;;23.23;;
48703;SDS011;34502;51.296;16.918;2022-11-06T06:28:57;33.35;;;22.77;;
48703;SDS011;34502;51.296;16.918;2022-11-06T06:31:26;34.67;;;24.08;;
48703;SDS011;34502;51.296;16.918;2022-11-06T06:33:52;38.25;;;25.92;;
48703;SDS011;34502;51.296;16.918;2022-11-06T06:36:18;39.90;;;26.73;;
48703;SDS011;34502;51.296;16.918;2022-11-06T06:38:44;35.92;;;26.35;;
48703;SDS011;34502;51.296;16.918;2022-11-06T06:41:10;41.53;;;26.10;;
48703;SDS011;34502;51.296;16.918;2022-11-06T06:43:36;35.20;;;24.70;;
48703;SDS011;34502;51.296;16.918;2022-11-06T06:46:03;41.63;;;24.83;;
48703;SDS011;34502;51.296;16.918;2022-11-06T06:48:32;35.05;;;25.13;;
48703;SDS011;34502;51.296;16.918;2022-11-06T06:50:59;36.58;;;24.15;;
48703;SDS011;34502;51.296;16.918;2022-11-06T06:53:27;44.10;;;29.48;;
48703;SDS011;34502;51.296;16.918;2022-11-06T06:55:53;42.25;;;27.75;;
48703;SDS011;34502;51.296;16.918;2022-11-06T06:58:21;39.60;;;28.73;;
48703;SDS011;34502;51.296;16.918;2022-11-06T07:00:47;46.95;;;31.80;;
48703;SDS011;34502;51.296;16.918;2022-11-06T07:03:13;47.20;;;33.00;;
48703;SDS011;34502;51.296;16.918;2022-11-06T07:05:40;50.70;;;34.00;;
48703;SDS011;34502;51.296;16.918;2022-11-06T07:08:06;43.42;;;30.42;;
48703;SDS011;34502;51.296;16.918;2022-11-06T07:10:32;44.80;;;29.27;;
48703;SDS011;34502;51.296;16.918;2022-11-06T07:13:02;39.13;;;27.77;;
48703;SDS011;34502;51.296;16.918;2022-11-06T07:15:29;42.95;;;29.55;;
48703;SDS011;34502;51.296;16.918;2022-11-06T07:18:00;44.95;;;27.48;;
48703;SDS011;34502;51.296;16.918;2022-11-06T07:20:27;42.93;;;27.67;;
48703;SDS011;34502;51.296;16.918;2022-11-06T07:22:53;49.28;;;27.85;;
48703;SDS011;34502;51.296;16.918;2022-11-06T07:25:19;48.10;;;26.00;;
48703;SDS011;34502;51.296;16.918;2022-11-06T07:27:45;52.85;;;25.92;;
48703;SDS011;34502;51.296;16.918;2022-11-06T07:30:12;40.00;;;24.35;;
48703;SDS011;34502;51.296;16.918;2022-11-06T07:32:38;42.40;;;24.73;;
48703;SDS011;34502;51.296;16.918;2022-11-06T07:35:04;41.50;;;24.40;;
48703;SDS011;34502;51.296;16.918;2022-11-06T07:37:31;42.85;;;24.63;;
48703;SDS011;34502;51.296;16.918;2022-11-06T07:39:57;40.63;;;24.60;;
48703;SDS011;34502;51.296;16.918;2022-11-06T07:42:23;38.70;;;23.08;;
48703;SDS011;34502;51.296;16.918;2022-11-06T07:44:49;48.30;;;24.30;;
48703;SDS011;34502;51.296;16.918;2022-11-06T07:47:18;44.60;;;22.83;;
48703;SDS011;34502;51.296;16.918;2022-11-06T07:49:44;43.28;;;24.02;;
48703;SDS011;34502;51.296;16.918;2022-11-06T07:52:10;39.53;;;22.00;;
48703;SDS011;34502;51.296;16.918;2022-11-06T07:54:36;36.70;;;20.25;;
48703;SDS011;34502;51.296;16.918;2022-11-06T07:57:02;37.35;;;21.27;;
48703;SDS011;34502;51.296;16.918;2022-11-06T07:59:28;31.50;;;19.88;;
48703;SDS011;34502;51.296;16.918;2022-11-06T08:01:54;33.13;;;20.17;;
48703;SDS011;34502;51.296;16.918;2022-11-06T08:04:20;33.70;;;19.80;;
48703;SDS011;34502;51.296;16.918;2022-11-06T08:06:47;38.28;;;22.70;;
48703;SDS011;34502;51.296;16.918;2022-11-06T08:09:13;35.88;;;21.92;;
48703;SDS011;34502;51.296;16.918;2022-11-06T08:11:39;37.25;;;20.83;;
48703;SDS011;34502;51.296;16.918;2022-11-06T08:14:05;32.83;;;19.30;;
48703;SDS011;34502;51.296;16.918;2022-11-06T08:16:31;28.33;;;19.55;;
48703;SDS011;34502;51.296;16.918;2022-11-06T08:18:57;32.42;;;18.27;;
48703;SDS011;34502;51.296;16.918;2022-11-06T08:21:23;27.88;;;18.00;;
48703;SDS011;34502;51.296;16.918;2022-11-06T08:23:49;27.58;;;19.05;;
48703;SDS011;34502;51.296;16.918;2022-11-06T08:26:16;31.70;;;18.25;;
48703;SDS011;34502;51.296;16.918;2022-11-06T08:28:42;28.40;;;17.58;;
48703;SDS011;34502;51.296;16.918;2022-11-06T08:31:08;32.45;;;16.95;;
48703;SDS011;34502;51.296;16.918;2022-11-06T08:33:35;28.77;;;16.80;;
48703;SDS011;34502;51.296;16.918;2022-11-06T08:36:03;24.33;;;17.20;;
48703;SDS011;34502;51.296;16.918;2022-11-06T08:38:30;27.50;;;17.85;;
48703;SDS011;34502;51.296;16.918;2022-11-06T08:40:56;23.98;;;16.42;;
48703;SDS011;34502;51.296;16.918;2022-11-06T08:43:22;28.17;;;15.73;;
48703;SDS011;34502;51.296;16.918;2022-11-06T08:45:50;27.25;;;14.43;;
48703;SDS011;34502;51.296;16.918;2022-11-06T08:48:17;26.27;;;14.48;;
48703;SDS011;34502;51.296;16.918;2022-11-06T08:50:43;26.05;;;13.15;;
48703;SDS011;34502;51.296;16.918;2022-11-06T08:53:09;25.20;;;12.50;;
48703;SDS011;34502;51.296;16.918;2022-11-06T08:55:36;28.05;;;13.45;;
48703;SDS011;34502;51.296;16.918;2022-11-06T08:58:03;24.42;;;12.55;;
48703;SDS011;34502;51.296;16.918;2022-11-06T09:00:30;20.95;;;12.30;;
48703;SDS011;34502;51.296;16.918;2022-11-06T09:02:57;19.88;;;13.02;;
48703;SDS011;34502;51.296;16.918;2022-11-06T09:05:28;26.92;;;13.32;;
48703;SDS011;34502;51.296;16.918;2022-11-06T09:07:55;19.50;;;12.68;;
48703;SDS011;34502;51.296;16.918;2022-11-06T09:10:22;22.83;;;12.93;;
48703;SDS011;34502;51.296;16.918;2022-11-06T09:12:49;29.55;;;13.57;;
48703;SDS011;34502;51.296;16.918;2022-11-06T09:15:15;23.98;;;12.80;;
48703;SDS011;34502;51.296;16.918;2022-11-06T09:17:43;24.90;;;12.23;;
48703;SDS011;34502;51.296;16.918;2022-11-06T09:20:11;25.90;;;12.43;;
48703;SDS011;34502;51.296;16.918;2022-11-06T09:22:37;20.65;;;13.70;;
48703;SDS011;34502;51.296;16.918;2022-11-06T09:25:04;22.27;;;12.00;;
48703;SDS011;34502;51.296;16.918;2022-11-06T09:27:30;19.30;;;12.60;;
48703;SDS011;34502;51.296;16.918;2022-11-06T09:30:17;18.95;;;10.65;;
48703;SDS011;34502;51.296;16.918;2022-11-06T09:32:48;17.50;;;9.32;;
48703;SDS011;34502;51.296;16.918;2022-11-06T09:35:19;16.42;;;9.65;;
48703;SDS011;34502;51.296;16.918;2022-11-06T09:37:46;17.02;;;9.18;;
48703;SDS011;34502;51.296;16.918;2022-11-06T09:40:17;16.42;;;9.57;;
48703;SDS011;34502;51.296;16.918;2022-11-06T09:45:22;19.05;;;8.70;;
48703;SDS011;34502;51.296;16.918;2022-11-06T09:48:33;15.07;;;8.40;;
48703;SDS011;34502;51.296;16.918;2022-11-06T09:51:01;15.88;;;8.48;;
48703;SDS011;34502;51.296;16.918;2022-11-06T09:53:47;16.40;;;8.15;;
48703;SDS011;34502;51.296;16.918;2022-11-06T09:56:31;15.55;;;8.52;;
48703;SDS011;34502;51.296;16.918;2022-11-06T09:58:59;15.45;;;7.78;;
48703;SDS011;34502;51.296;16.918;2022-11-06T10:01:38;15.15;;;7.97;;
48703;SDS011;34502;51.296;16.918;2022-11-06T10:04:17;15.52;;;8.50;;
48703;SDS011;34502;51.296;16.918;2022-11-06T10:07:18;14.07;;;7.60;;
48703;SDS011;34502;51.296;16.918;2022-11-06T10:09:47;16.27;;;7.72;;
48703;SDS011;34502;51.296;16.918;2022-11-06T10:12:16;15.45;;;7.95;;
48703;SDS011;34502;51.296;16.918;2022-11-06T10:15:06;15.73;;;8.40;;
48703;SDS011;34502;51.296;16.918;2022-11-06T10:18:07;16.60;;;8.68;;
48703;SDS011;34502;51.296;16.918;2022-11-06T10:20:45;16.98;;;9.23;;
48703;SDS011;34502;51.296;16.918;2022-11-06T10:23:19;16.33;;;10.02;;
48703;SDS011;34502;51.296;16.918;2022-11-06T10:29:06;15.82;;;9.45;;
48703;SDS011;34502;51.296;16.918;2022-11-06T10:31:39;18.50;;;9.57;;
48703;SDS011;34502;51.296;16.918;2022-11-06T10:34:14;19.02;;;10.48;;
48703;SDS011;34502;51.296;16.918;2022-11-06T10:37:00;17.50;;;8.95;;
48703;SDS011;34502;51.296;16.918;2022-11-06T10:39:31;15.25;;;9.10;;
48703;SDS011;34502;51.296;16.918;2022-11-06T10:42:05;18.52;;;9.95;;
48703;SDS011;34502;51.296;16.918;2022-11-06T10:47:21;18.15;;;9.77;;
48703;SDS011;34502;51.296;16.918;2022-11-06T10:49:54;17.27;;;9.35;;
48703;SDS011;34502;51.296;16.918;2022-11-06T10:52:34;21.33;;;9.40;;
48703;SDS011;34502;51.296;16.918;2022-11-06T10:55:08;22.23;;;9.80;;
48703;SDS011;34502;51.296;16.918;2022-11-06T10:57:47;16.40;;;9.20;;
48703;SDS011;34502;51.296;16.918;2022-11-06T11:00:19;18.00;;;8.20;;
48703;SDS011;34502;51.296;16.918;2022-11-06T11:02:47;16.27;;;8.45;;
48703;SDS011;34502;51.296;16.918;2022-11-06T11:05:19;17.42;;;9.10;;
48703;SDS011;34502;51.296;16.918;2022-11-06T11:07:47;16.33;;;7.15;;
48703;SDS011;34502;51.296;16.918;2022-11-06T11:12:49;19.67;;;6.97;;
48703;SDS011;34502;51.296;16.918;2022-11-06T11:15:17;18.63;;;6.60;;
48703;SDS011;34502;51.296;16.918;2022-11-06T11:18:05;20.05;;;6.68;;
48703;SDS011;34502;51.296;16.918;2022-11-06T11:20:48;10.82;;;5.53;;
48703;SDS011;34502;51.296;16.918;2022-11-06T11:23:22;11.18;;;5.45;;
48703;SDS011;34502;51.296;16.918;2022-11-06T11:25:50;11.40;;;4.82;;
48703;SDS011;34502;51.296;16.918;2022-11-06T11:28:28;13.00;;;4.18;;
48703;SDS011;34502;51.296;16.918;2022-11-06T11:31:01;12.73;;;5.38;;
48703;SDS011;34502;51.296;16.918;2022-11-06T11:33:39;14.10;;;4.50;;
48703;SDS011;34502;51.296;16.918;2022-11-06T11:36:11;10.95;;;4.25;;
48703;SDS011;34502;51.296;16.918;2022-11-06T11:38:38;14.80;;;5.05;;
48703;SDS011;34502;51.296;16.918;2022-11-06T11:41:10;11.73;;;4.55;;
48703;SDS011;34502;51.296;16.918;2022-11-06T11:43:38;10.93;;;4.30;;
48703;SDS011;34502;51.296;16.918;2022-11-06T11:48:52;9.23;;;3.95;;
48703;SDS011;34502;51.296;16.918;2022-11-06T11:54:16;7.85;;;3.50;;
48703;SDS011;34502;51.296;16.918;2022-11-06T11:56:49;7.97;;;3.83;;
48703;SDS011;34502;51.296;16.918;2022-11-06T11:59:23;12.30;;;3.90;;
48703;SDS011;34502;51.296;16.918;2022-11-06T12:01:52;10.55;;;4.55;;
48703;SDS011;34502;51.296;16.918;2022-11-06T12:07:24;10.73;;;3.83;;
48703;SDS011;34502;51.296;16.918;2022-11-06T12:09:52;9.20;;;3.85;;
48703;SDS011;34502;51.296;16.918;2022-11-06T12:12:19;7.05;;;3.38;;
48703;SDS011;34502;51.296;16.918;2022-11-06T12:14:47;7.85;;;3.63;;
48703;SDS011;34502;51.296;16.918;2022-11-06T12:17:38;8.63;;;3.25;;
48703;SDS011;34502;51.296;16.918;2022-11-06T12:20:09;9.73;;;3.30;;
48703;SDS011;34502;51.296;16.918;2022-11-06T12:22:40;10.13;;;4.15;;
48703;SDS011;34502;51.296;16.918;2022-11-06T12:25:12;8.85;;;3.33;;
48703;SDS011;34502;51.296;16.918;2022-11-06T12:27:58;11.25;;;2.92;;
48703;SDS011;34502;51.296;16.918;2022-11-06T12:30:25;7.40;;;3.05;;
48703;SDS011;34502;51.296;16.918;2022-11-06T12:35:38;6.80;;;2.70;;
48703;SDS011;34502;51.296;16.918;2022-11-06T12:38:14;8.60;;;2.75;;
48703;SDS011;34502;51.296;16.918;2022-11-06T12:41:53;6.38;;;3.22;;
48703;SDS011;34502;51.296;16.918;2022-11-06T12:43:49;9.40;;;3.10;;
48703;SDS011;34502;51.296;16.918;2022-11-06T13:05:20;7.20;;;2.65;;
48703;SDS011;34502;51.296;16.918;2022-11-06T13:08:00;9.63;;;3.13;;
48703;SDS011;34502;51.296;16.918;2022-11-06T13:16:27;8.00;;;3.10;;
48703;SDS011;34502;51.296;16.918;2022-11-06T13:22:10;10.73;;;2.75;;
48703;SDS011;34502;51.296;16.918;2022-11-06T13:27:30;9.85;;;2.45;;
48703;SDS011;34502;51.296;16.918;2022-11-06T13:30:25;7.88;;;2.42;;
48703;SDS011;34502;51.296;16.918;2022-11-06T13:32:57;9.80;;;2.80;;
48703;SDS011;34502;51.296;16.918;2022-11-06T13:35:27;7.68;;;2.83;;
48703;SDS011;34502;51.296;16.918;2022-11-06T13:37:53;11.02;;;2.85;;
48703;SDS011;34502;51.296;16.918;2022-11-06T13:43:18;8.45;;;2.45;;
48703;SDS011;34502;51.296;16.918;2022-11-06T13:46:07;8.50;;;3.03;;
48703;SDS011;34502;51.296;16.918;2022-11-06T13:51:55;7.05;;;2.17;;
48703;SDS011;34502;51.296;16.918;2022-11-06T13:57:48;10.10;;;3.00;;
48703;SDS011;34502;51.296;16.918;2022-11-06T14:00:04;17.08;;;5.68;;
48703;SDS011;34502;51.296;16.918;2022-11-06T14:07:32;4.95;;;2.33;;
48703;SDS011;34502;51.296;16.918;2022-11-06T14:10:00;10.23;;;3.75;;
48703;SDS011;34502;51.296;16.918;2022-11-06T14:12:26;10.70;;;3.65;;
48703;SDS011;34502;51.296;16.918;2022-11-06T14:15:11;13.35;;;4.95;;
48703;SDS011;34502;51.296;16.918;2022-11-06T14:17:41;12.30;;;4.00;;
48703;SDS011;34502;51.296;16.918;2022-11-06T14:20:34;13.00;;;3.30;;
48703;SDS011;34502;51.296;16.918;2022-11-06T14:25:59;14.02;;;4.45;;
48703;SDS011;34502;51.296;16.918;2022-11-06T14:28:32;10.27;;;3.47;;
48703;SDS011;34502;51.296;16.918;2022-11-06T14:30:59;14.87;;;4.67;;
48703;SDS011;34502;51.296;16.918;2022-11-06T14:38:49;10.70;;;4.38;;
48703;SDS011;34502;51.296;16.918;2022-11-06T14:44:12;8.75;;;3.38;;
48703;SDS011;34502;51.296;16.918;2022-11-06T14:46:52;12.05;;;4.32;;
48703;SDS011;34502;51.296;16.918;2022-11-06T14:51:59;13.00;;;3.83;;
48703;SDS011;34502;51.296;16.918;2022-11-06T14:54:30;13.75;;;5.45;;
48703;SDS011;34502;51.296;16.918;2022-11-06T14:56:59;13.35;;;5.57;;
48703;SDS011;34502;51.296;16.918;2022-11-06T14:59:32;12.32;;;4.97;;
48703;SDS011;34502;51.296;16.918;2022-11-06T15:02:02;15.05;;;5.43;;
48703;SDS011;34502;51.296;16.918;2022-11-06T15:04:30;10.57;;;6.47;;
48703;SDS011;34502;51.296;16.918;2022-11-06T15:07:05;15.75;;;5.43;;
48703;SDS011;34502;51.296;16.918;2022-11-06T15:12:06;16.17;;;6.85;;
48703;SDS011;34502;51.296;16.918;2022-11-06T15:17:06;15.70;;;8.52;;
48703;SDS011;34502;51.296;16.918;2022-11-06T15:22:13;21.73;;;9.88;;
48703;SDS011;34502;51.296;16.918;2022-11-06T15:25:00;21.08;;;10.02;;
48703;SDS011;34502;51.296;16.918;2022-11-06T15:27:44;18.45;;;9.43;;
48703;SDS011;34502;51.296;16.918;2022-11-06T15:30:39;18.00;;;8.52;;
48703;SDS011;34502;51.296;16.918;2022-11-06T15:33:13;13.93;;;6.65;;
48703;SDS011;34502;51.296;16.918;2022-11-06T15:35:43;16.58;;;7.43;;
48703;SDS011;34502;51.296;16.918;2022-11-06T15:38:15;16.92;;;7.93;;
48703;SDS011;34502;51.296;16.918;2022-11-06T15:40:44;18.98;;;9.57;;
48703;SDS011;34502;51.296;16.918;2022-11-06T15:43:19;24.88;;;11.82;;
48703;SDS011;34502;51.296;16.918;2022-11-06T15:45:46;22.98;;;10.43;;
48703;SDS011;34502;51.296;16.918;2022-11-06T15:48:27;16.97;;;8.80;;
48703;SDS011;34502;51.296;16.918;2022-11-06T15:50:53;16.60;;;6.30;;
48703;SDS011;34502;51.296;16.918;2022-11-06T15:53:21;11.88;;;5.65;;
48703;SDS011;34502;51.296;16.918;2022-11-06T15:58:25;17.52;;;6.50;;
48703;SDS011;34502;51.296;16.918;2022-11-06T16:00:52;15.32;;;6.00;;
48703;SDS011;34502;51.296;16.918;2022-11-06T16:03:20;15.52;;;6.60;;
48703;SDS011;34502;51.296;16.918;2022-11-06T16:05:48;15.20;;;5.75;;
48703;SDS011;34502;51.296;16.918;2022-11-06T16:08:15;17.35;;;7.18;;
48703;SDS011;34502;51.296;16.918;2022-11-06T16:10:42;19.42;;;8.60;;
48703;SDS011;34502;51.296;16.918;2022-11-06T16:13:10;21.10;;;8.82;;
48703;SDS011;34502;51.296;16.918;2022-11-06T16:20:48;19.73;;;9.10;;
48703;SDS011;34502;51.296;16.918;2022-11-06T16:23:19;19.63;;;9.33;;
48703;SDS011;34502;51.296;16.918;2022-11-06T16:25:58;31.35;;;15.48;;
48703;SDS011;34502;51.296;16.918;2022-11-06T16:28:35;53.88;;;24.42;;
48703;SDS011;34502;51.296;16.918;2022-11-06T16:31:07;75.28;;;37.38;;
48703;SDS011;34502;51.296;16.918;2022-11-06T16:36:07;51.85;;;25.20;;
48703;SDS011;34502;51.296;16.918;2022-11-06T16:38:35;31.17;;;17.00;;
48703;SDS011;34502;51.296;16.918;2022-11-06T16:41:04;28.33;;;14.07;;
48703;SDS011;34502;51.296;16.918;2022-11-06T16:43:31;26.67;;;12.60;;
48703;SDS011;34502;51.296;16.918;2022-11-06T16:46:01;24.25;;;14.27;;